createdAt,value
2022-08-30T00:00:10.617Z,100533.94
2022-08-30T00:02:57.691Z,100533.56
2022-08-30T00:05:44.624Z,100531.53
2022-08-30T00:08:31.645Z,100535.56
2022-08-30T00:11:22.617Z,100536.78
2022-08-30T00:14:03.737Z,100533.97
2022-08-30T00:16:50.578Z,100531.56
2022-08-30T00:19:30.741Z,100524.34
2022-08-30T00:22:17.593Z,100528.34
2022-08-30T00:24:57.784Z,100519.91
2022-08-30T00:27:45.562Z,100528.34
2022-08-30T00:30:27.795Z,100526.34
2022-08-30T00:33:14.615Z,100523.53
2022-08-30T00:35:54.785Z,100517.91
2022-08-30T00:38:41.578Z,100521.91
2022-08-30T00:41:29.642Z,100521.50
2022-08-30T00:44:10.527Z,100521.47
2022-08-30T00:46:57.612Z,100523.09
2022-08-30T00:49:48.585Z,100525.06
2022-08-30T00:52:30.833Z,100531.09
2022-08-30T00:55:20.581Z,100527.44
2022-08-30T00:58:05.753Z,100530.66
2022-08-30T01:00:52.580Z,100528.66
2022-08-30T01:03:34.750Z,100527.03
2022-08-30T01:06:22.632Z,100532.66
2022-08-30T01:09:10.563Z,100531.88
2022-08-30T01:11:51.117Z,100537.84
2022-08-30T01:14:38.528Z,100534.69
2022-08-30T01:17:26.544Z,100535.47
2022-08-30T01:20:20.863Z,100530.56
2022-08-30T01:23:22.558Z,100536.19
2022-08-30T01:26:09.556Z,100534.53
2022-08-30T01:29:08.555Z,100530.91
2022-08-30T01:31:56.498Z,100525.22
2022-08-30T01:34:36.607Z,100526.03
2022-08-30T01:37:33.493Z,100528.03
2022-08-30T01:40:14.776Z,100524.47
2022-08-30T01:43:01.530Z,100527.66
2022-08-30T01:45:41.684Z,100529.69
2022-08-30T01:48:31.185Z,100533.66
2022-08-30T01:51:12.649Z,100534.44
2022-08-30T01:54:00.506Z,100533.25
2022-08-30T01:56:41.893Z,100529.19
2022-08-30T01:59:28.522Z,100538.03
2022-08-30T02:02:16.469Z,100528.75
2022-08-30T02:05:03.475Z,100538.78
2022-08-30T02:07:43.613Z,100534.81
2022-08-30T02:10:30.477Z,100527.56
2022-08-30T02:13:17.679Z,100531.53
2022-08-30T02:15:58.080Z,100529.91
2022-08-30T02:18:46.487Z,100528.66
2022-08-30T02:21:33.613Z,100535.47
2022-08-30T02:24:13.491Z,100531.50
2022-08-30T02:27:07.474Z,100538.28
2022-08-30T02:29:47.953Z,100525.09
2022-08-30T02:32:34.459Z,100522.28
2022-08-30T02:35:21.482Z,100531.50
2022-08-30T02:38:01.549Z,100530.31
2022-08-30T02:40:48.476Z,100534.97
2022-08-30T02:43:28.567Z,100534.59
2022-08-30T02:46:15.508Z,100535.13
2022-08-30T02:48:55.544Z,100538.97
2022-08-30T02:51:42.463Z,100539.38
2022-08-30T02:54:23.585Z,100535.41
2022-08-30T02:57:20.044Z,100542.94
2022-08-30T03:00:00.677Z,100556.22
2022-08-30T03:02:48.426Z,100550.19
2022-08-30T03:05:28.566Z,100554.59
2022-08-30T03:26:25.851Z,100572.13
2022-08-30T03:29:12.748Z,100580.63
2022-08-30T03:31:54.001Z,100568.72
2022-08-30T03:34:40.739Z,100583.66
2022-08-30T03:37:24.372Z,100577.69
2022-08-30T03:40:15.699Z,100582.50
2022-08-30T03:42:55.823Z,100574.16
2022-08-30T03:45:42.783Z,100582.16
2022-08-30T03:48:29.724Z,100583.00
2022-08-30T03:51:16.737Z,100580.81
2022-08-30T03:53:56.842Z,100584.84
2022-08-30T03:56:43.732Z,100586.13
2022-08-30T03:59:23.795Z,100593.00
2022-08-30T04:02:11.821Z,100593.41
2022-08-30T04:04:51.812Z,100597.44
2022-08-30T04:07:38.669Z,100597.88
2022-08-30T04:10:21.573Z,100602.66
2022-08-30T04:13:08.904Z,100600.28
2022-08-30T04:15:55.775Z,100602.28
2022-08-30T04:18:36.368Z,100603.56
2022-08-30T04:21:22.700Z,100593.56
2022-08-30T04:24:17.666Z,100600.97
2022-08-30T04:27:04.955Z,100604.63
2022-08-30T04:29:44.946Z,100604.69
2022-08-30T04:32:31.706Z,100604.66
2022-08-30T04:35:12.896Z,100601.03
2022-08-30T04:37:59.854Z,100605.00
2022-08-30T04:40:46.712Z,100611.28
2022-08-30T04:43:34.682Z,100612.28
2022-08-30T04:46:22.707Z,100614.19
2022-08-30T04:49:04.322Z,100614.91
2022-08-30T04:51:50.646Z,100614.06
2022-08-30T04:54:31.298Z,100609.75
2022-08-30T04:57:19.638Z,100618.22
2022-08-30T05:00:07.655Z,100622.19
2022-08-30T05:02:55.661Z,100613.50
2022-08-30T05:05:48.835Z,100621.22
2022-08-30T05:08:29.765Z,100616.84
2022-08-30T05:11:16.597Z,100629.75
2022-08-30T05:14:03.867Z,100625.50
2022-08-30T05:16:44.251Z,100628.75
2022-08-30T05:19:31.598Z,100629.34
2022-08-30T05:22:18.618Z,100636.75
2022-08-30T05:25:14.726Z,100631.81
2022-08-30T05:28:08.619Z,100638.53
2022-08-30T05:30:55.635Z,100641.66
2022-08-30T05:33:38.752Z,100635.72
2022-08-30T05:36:27.605Z,100640.69
2022-08-30T05:39:14.644Z,100637.69
2022-08-30T05:41:59.390Z,100630.63
2022-08-30T05:44:46.587Z,100638.34
2022-08-30T05:47:27.063Z,100644.69
2022-08-30T05:50:16.589Z,100647.22
2022-08-30T05:52:57.004Z,100640.78
2022-08-30T05:55:43.596Z,100647.47
2022-08-30T05:58:30.617Z,100650.09
2022-08-30T06:01:11.740Z,100648.34
2022-08-30T06:04:03.844Z,100642.88
2022-08-30T06:06:47.801Z,100640.19
2022-08-30T06:09:34.620Z,100643.59
2022-08-30T06:12:14.776Z,100652.66
2022-08-30T06:15:01.694Z,100634.59
2022-08-30T06:17:41.739Z,100636.84
2022-08-30T06:20:28.604Z,100644.59
2022-08-30T06:23:08.695Z,100642.16
2022-08-30T06:25:56.595Z,100636.81
2022-08-30T06:28:36.849Z,100639.94
2022-08-30T06:31:25.712Z,100640.16
2022-08-30T06:34:05.707Z,100644.63
2022-08-30T06:36:52.586Z,100650.75
2022-08-30T06:39:39.652Z,100643.06
2022-08-30T06:42:26.574Z,100654.88
2022-08-30T06:45:14.600Z,100649.00
2022-08-30T06:48:01.514Z,100654.88
2022-08-30T06:50:51.598Z,100649.72
2022-08-30T06:53:32.463Z,100653.72
2022-08-30T06:56:22.607Z,100650.91
2022-08-30T06:59:03.225Z,100649.19
2022-08-30T07:01:49.679Z,100651.47
2022-08-30T07:04:30.029Z,100646.19
2022-08-30T07:07:16.539Z,100649.31
2022-08-30T07:10:04.581Z,100657.47
2022-08-30T07:12:51.555Z,100652.06
2022-08-30T07:15:33.994Z,100652.97
2022-08-30T07:18:45.523Z,100648.47
2022-08-30T07:21:33.726Z,100653.38
2022-08-30T07:24:21.505Z,100643.31
2022-08-30T07:27:01.950Z,100646.31
2022-08-30T07:29:48.518Z,100652.31
2022-08-30T07:32:35.510Z,100652.22
2022-08-30T07:35:22.540Z,100650.56
2022-08-30T07:38:02.994Z,100658.72
2022-08-30T07:40:51.489Z,100655.34
2022-08-30T07:43:35.004Z,100652.94
2022-08-30T07:46:22.576Z,100653.75
2022-08-30T07:49:04.074Z,100652.00
2022-08-30T07:51:51.455Z,100650.72
2022-08-30T07:54:31.894Z,100650.25
2022-08-30T07:57:18.500Z,100641.13
2022-08-30T07:59:58.953Z,100637.72
2022-08-30T08:02:52.558Z,100638.13
2022-08-30T08:05:39.185Z,100639.19
2022-08-30T08:08:27.460Z,100636.09
2022-08-30T08:11:19.448Z,100638.34
2022-08-30T08:14:00.578Z,100639.44
2022-08-30T08:16:48.432Z,100638.78
2022-08-30T08:19:28.548Z,100639.63
2022-08-30T08:22:21.063Z,100645.78
2022-08-30T08:25:15.458Z,100642.94
2022-08-30T08:28:02.507Z,100636.69
2022-08-30T08:30:51.484Z,100644.47
2022-08-30T08:33:38.455Z,100633.38
2022-08-30T08:36:18.703Z,100631.34
2022-08-30T08:39:06.423Z,100628.25
2022-08-30T08:41:52.595Z,100623.06
2022-08-30T08:44:57.399Z,100623.34
2022-08-30T08:47:47.446Z,100620.69
2022-08-30T08:50:31.746Z,100625.59
2022-08-30T08:53:47.013Z,100616.81
2022-08-30T08:56:27.915Z,100627.75
2022-08-30T08:59:14.401Z,100621.78
2022-08-30T09:02:05.815Z,100620.69
2022-08-30T09:04:46.474Z,100621.31
2022-08-30T09:07:32.638Z,100625.41
2022-08-30T09:10:40.425Z,100619.88
2022-08-30T09:13:31.473Z,100624.66
2022-08-30T09:16:22.298Z,100617.69
2022-08-30T09:19:16.436Z,100622.59
2022-08-30T09:22:47.126Z,100616.72
2022-08-30T09:25:45.409Z,100614.63
2022-08-30T09:28:38.517Z,100612.09
2022-08-30T09:32:01.347Z,100612.91
2022-08-30T09:34:57.411Z,100612.38
2022-08-30T09:37:43.533Z,100613.53
2022-08-30T09:40:38.423Z,100605.63
2022-08-30T09:43:36.382Z,100611.63
2022-08-30T09:46:31.418Z,100614.34
2022-08-30T09:49:34.573Z,100609.31
2022-08-30T09:52:41.414Z,100607.66
2022-08-30T09:55:38.500Z,100608.03
2022-08-30T09:58:43.386Z,100610.91
2022-08-30T10:01:45.585Z,100613.91
2022-08-30T10:05:14.357Z,100614.56
2022-08-30T10:08:25.274Z,100607.31
2022-08-30T10:11:18.347Z,100604.94
2022-08-30T10:14:21.372Z,100608.09
2022-08-30T10:17:27.006Z,100607.47
2022-08-30T10:20:25.359Z,100615.47
2022-08-30T10:23:41.078Z,100605.47
2022-08-30T10:26:54.378Z,100604.22
2022-08-30T10:29:51.579Z,100605.31
2022-08-30T10:32:45.333Z,100606.47
2022-08-30T10:35:36.856Z,100596.25
2022-08-30T10:38:50.321Z,100597.50
2022-08-30T10:41:49.309Z,100601.56
2022-08-30T10:44:43.455Z,100599.81
2022-08-30T10:47:51.432Z,100598.28
2022-08-30T10:51:04.317Z,100604.09
2022-08-30T10:53:56.400Z,100618.13
2022-08-30T10:56:36.407Z,100608.78
2022-08-30T10:59:25.283Z,100594.41
2022-08-30T11:02:34.405Z,100593.16
2022-08-30T11:05:40.728Z,100588.94
2022-08-30T11:08:59.427Z,100577.03
2022-08-30T11:11:51.341Z,100570.13
2022-08-30T11:14:31.470Z,100574.97
2022-08-30T11:17:45.309Z,100569.09
2022-08-30T11:20:37.701Z,100576.59
2022-08-30T11:23:42.279Z,100565.50
2022-08-30T11:26:58.279Z,100569.13
2022-08-30T11:29:44.187Z,100562.13
2022-08-30T11:32:38.266Z,100561.94
2022-08-30T11:35:48.661Z,100559.91
2022-08-30T11:38:35.365Z,100547.66
2022-08-30T11:41:42.527Z,100553.31
2022-08-30T11:44:29.424Z,100539.59
2022-08-30T11:47:54.252Z,100541.63
2022-08-30T11:51:13.270Z,100542.41
2022-08-30T11:54:09.944Z,100536.72
2022-08-30T11:57:06.250Z,100538.25
2022-08-30T12:00:11.248Z,100538.97
2022-08-30T12:03:04.345Z,100535.41
2022-08-30T12:05:58.931Z,100534.63
2022-08-30T12:08:47.250Z,100542.06
2022-08-30T12:11:40.268Z,100538.00
2022-08-30T12:14:52.000Z,100552.72
2022-08-30T12:18:29.253Z,100541.38
2022-08-30T12:21:33.410Z,100541.16
2022-08-30T12:24:39.213Z,100537.69
2022-08-30T12:27:45.239Z,100532.97
2022-08-30T12:30:28.084Z,100538.69
2022-08-30T12:33:15.221Z,100538.94
2022-08-30T12:36:05.234Z,100517.75
2022-08-30T12:38:45.290Z,100523.22
2022-08-30T12:41:32.226Z,100521.69
2022-08-30T12:44:23.259Z,100530.91
2022-08-30T12:47:12.222Z,100525.25
2022-08-30T12:50:03.275Z,100520.63
2022-08-30T12:52:46.693Z,100517.66
2022-08-30T12:55:38.210Z,100520.84
2022-08-30T12:58:39.702Z,100508.53
2022-08-30T13:01:39.315Z,100519.78
2022-08-30T13:04:27.173Z,100511.63
2022-08-30T13:07:15.224Z,100501.22
2022-08-30T13:10:21.391Z,100496.81
2022-08-30T13:13:14.222Z,100502.06
2022-08-30T13:15:55.428Z,100499.97
2022-08-30T13:18:43.261Z,100491.34
2022-08-30T13:21:41.171Z,100484.28
2022-08-30T13:24:25.216Z,100475.66
2022-08-30T13:27:18.170Z,100481.53
2022-08-30T13:29:58.317Z,100476.50
2022-08-30T13:32:45.227Z,100482.31
2022-08-30T13:35:33.218Z,100488.41
2022-08-30T13:38:21.167Z,100479.50
2022-08-30T13:41:01.621Z,100464.88
2022-08-30T13:46:55.367Z,100481.31
2022-08-30T13:49:44.832Z,100478.72
2022-08-30T13:52:28.246Z,100469.47
2022-08-30T13:55:16.092Z,100473.59
2022-08-30T13:58:03.111Z,100471.44
2022-08-30T14:00:46.168Z,100467.28
2022-08-30T14:03:33.235Z,100469.53
2022-08-30T14:06:32.877Z,100465.19
2022-08-30T14:09:14.158Z,100469.25
2022-08-30T14:12:01.103Z,100464.75
2022-08-30T14:14:43.240Z,100465.75
2022-08-30T14:17:36.152Z,100470.47
2022-08-30T14:20:17.855Z,100466.50
2022-08-30T14:23:07.581Z,100461.25
2022-08-30T14:26:04.103Z,100461.72
2022-08-30T14:28:44.958Z,100471.34
2022-08-30T14:31:32.690Z,100460.81
2022-08-30T14:34:13.665Z,100462.41
2022-08-30T14:37:02.124Z,100470.19
2022-08-30T14:39:42.834Z,100453.56
2022-08-30T14:42:30.123Z,100446.59
2022-08-30T14:45:18.088Z,100455.97
2022-08-30T14:48:11.459Z,100454.94
2022-08-30T14:50:52.754Z,100450.00
2022-08-30T14:53:39.083Z,100441.56
2022-08-30T14:56:28.041Z,100442.94
2022-08-30T14:59:15.049Z,100449.94
2022-08-30T15:02:03.091Z,100449.94
2022-08-30T15:04:43.192Z,100440.34
2022-08-30T15:07:30.063Z,100437.19
2022-08-30T15:10:14.832Z,100425.63
2022-08-30T15:28:00.748Z,100433.34
2022-08-30T15:30:41.303Z,100419.53
2022-08-30T15:33:29.718Z,100429.91
2022-08-30T15:36:12.624Z,100428.88
2022-08-30T15:39:00.137Z,100424.00
2022-08-30T15:41:55.732Z,100419.38
2022-08-30T15:44:44.752Z,100429.50
2022-08-30T15:47:25.206Z,100419.94
2022-08-30T15:50:16.733Z,100427.81
2022-08-30T15:52:57.485Z,100425.53
2022-08-30T15:55:44.735Z,100421.06
2022-08-30T15:58:25.201Z,100412.50
2022-08-30T16:01:12.769Z,100415.19
2022-08-30T16:03:53.426Z,100422.59
2022-08-30T16:06:44.743Z,100419.69
2022-08-30T16:09:26.621Z,100417.84
2022-08-30T16:12:23.718Z,100422.91
2022-08-30T16:15:10.732Z,100425.25
2022-08-30T16:17:58.689Z,100422.59
2022-08-30T16:20:43.391Z,100424.16
2022-08-30T16:23:33.479Z,100421.19
2022-08-30T16:26:21.781Z,100421.75
2022-08-30T16:29:02.702Z,100418.31
2022-08-30T16:31:50.710Z,100425.25
2022-08-30T16:34:30.724Z,100425.25
2022-08-30T16:37:20.636Z,100430.63
2022-08-30T16:40:07.684Z,100427.09
2022-08-30T16:42:56.663Z,100430.69
2022-08-30T16:45:37.757Z,100431.63
2022-08-30T16:48:24.692Z,100430.06
2022-08-30T16:51:15.643Z,100431.69
2022-08-30T16:53:58.436Z,100424.09
2022-08-30T16:56:46.629Z,100435.84
2022-08-30T16:59:33.617Z,100438.34
2022-08-30T17:02:13.808Z,100436.81
2022-08-30T17:05:00.631Z,100439.63
2022-08-30T17:07:47.695Z,100443.31
2022-08-30T17:10:34.682Z,100433.72
2022-08-30T17:13:22.750Z,100442.59
2022-08-30T17:16:12.651Z,100445.47
2022-08-30T17:19:00.589Z,100462.84
2022-08-30T17:21:47.604Z,100462.91
2022-08-30T17:24:27.988Z,100470.22
2022-08-30T17:27:21.610Z,100476.69
2022-08-30T17:30:08.621Z,100473.44
2022-08-30T17:32:48.804Z,100477.53
2022-08-30T17:35:35.590Z,100484.75
2022-08-30T17:38:22.594Z,100480.00
2022-08-30T17:41:09.263Z,100486.44
2022-08-30T17:43:55.572Z,100486.06
2022-08-30T17:46:42.651Z,100487.63
2022-08-30T17:49:29.625Z,100494.03
2022-08-30T17:52:11.557Z,100491.53
2022-08-30T17:54:59.608Z,100496.47
2022-08-30T17:57:43.078Z,100498.97
2022-08-30T18:00:29.554Z,100503.44
2022-08-30T18:03:16.616Z,100505.84
2022-08-30T18:05:56.695Z,100503.78
2022-08-30T18:08:44.585Z,100510.66
2022-08-30T18:11:24.653Z,100516.81
2022-08-30T18:14:11.569Z,100513.63
2022-08-30T18:17:00.535Z,100509.09
2022-08-30T18:19:47.585Z,100513.97
2022-08-30T18:22:27.738Z,100512.84
2022-08-30T18:25:16.520Z,100522.63
2022-08-30T18:28:03.640Z,100525.00
2022-08-30T18:30:44.110Z,100522.94
2022-08-30T18:33:25.834Z,100528.28
2022-08-30T18:36:12.579Z,100530.88
2022-08-30T18:38:53.367Z,100534.13
2022-08-30T18:41:42.969Z,100531.75
2022-08-30T18:44:28.177Z,100537.03
2022-08-30T18:47:17.503Z,100537.91
2022-08-30T18:50:11.564Z,100539.91
2022-08-30T18:52:52.726Z,100538.34
2022-08-30T18:55:42.506Z,100533.84
2022-08-30T18:58:30.528Z,100541.97
2022-08-30T19:01:22.611Z,100539.22
2022-08-30T19:04:09.619Z,100534.75
2022-08-30T19:06:50.970Z,100533.19
2022-08-30T19:09:37.532Z,100529.50
2022-08-30T19:12:24.525Z,100534.47
2022-08-30T19:15:10.905Z,100533.28
2022-08-30T19:17:59.502Z,100529.97
2022-08-30T19:20:40.610Z,100523.47
2022-08-30T19:26:35.503Z,100535.38
2022-08-30T19:29:22.698Z,100526.03
2022-08-30T19:32:04.535Z,100525.28
2022-08-30T19:34:51.484Z,100519.31
2022-08-30T19:37:39.584Z,100525.44
2022-08-30T19:40:28.531Z,100525.06
2022-08-30T19:43:08.644Z,100519.81
2022-08-30T19:46:03.518Z,100525.50
2022-08-30T19:48:43.701Z,100509.72
2022-08-30T19:51:31.581Z,100520.19
2022-08-30T19:54:13.572Z,100518.94
2022-08-30T19:57:00.504Z,100516.16
2022-08-30T19:59:40.616Z,100526.66
2022-08-30T20:02:27.493Z,100525.78
2022-08-30T20:05:14.552Z,100519.25
2022-08-30T20:08:01.509Z,100519.28
2022-08-30T20:10:49.492Z,100511.19
2022-08-30T20:13:33.619Z,100511.59
2022-08-30T20:16:20.466Z,100518.78
2022-08-30T20:19:07.546Z,100512.34
2022-08-30T20:21:47.626Z,100513.06
2022-08-30T20:27:28.468Z,100515.13
2022-08-30T20:30:17.497Z,100512.66
2022-08-30T20:32:57.584Z,100515.47
2022-08-30T20:35:49.067Z,100515.56
2022-08-30T20:38:36.467Z,100514.38
2022-08-30T20:41:25.430Z,100508.34
2022-08-30T20:44:12.446Z,100502.38
2022-08-30T20:47:01.613Z,100514.50
2022-08-30T20:49:42.399Z,100514.94
2022-08-30T20:52:29.427Z,100512.97
2022-08-30T20:55:10.591Z,100500.66
2022-08-30T20:57:57.466Z,100497.84
2022-08-30T21:00:37.626Z,100489.00
2022-08-30T21:03:27.611Z,100492.25
2022-08-30T21:06:15.506Z,100486.19
2022-08-30T21:09:02.667Z,100492.69
2022-08-30T21:11:44.725Z,100491.16
2022-08-30T21:14:24.886Z,100485.53
2022-08-30T21:17:11.403Z,100492.38
2022-08-30T21:20:01.398Z,100494.38
2022-08-30T21:22:48.419Z,100491.56
2022-08-30T21:25:35.438Z,100492.03
2022-08-30T21:28:29.619Z,100484.81
2022-08-30T21:31:21.417Z,100490.81
2022-08-30T21:34:02.525Z,100494.06
2022-08-30T21:36:53.428Z,100484.03
2022-08-30T21:39:41.386Z,100486.53
2022-08-30T21:42:28.377Z,100494.16
2022-08-30T21:45:08.625Z,100489.28
2022-08-30T21:47:55.359Z,100483.25
2022-08-30T21:50:42.390Z,100480.00
2022-08-30T21:53:29.380Z,100478.38
2022-08-30T21:56:21.845Z,100478.03
2022-08-30T21:59:10.380Z,100482.09
2022-08-30T22:01:57.395Z,100488.16
2022-08-30T22:04:45.420Z,100491.06
2022-08-30T22:07:32.808Z,100495.00
2022-08-30T22:10:15.357Z,100486.19
2022-08-30T22:12:55.979Z,100486.53
2022-08-30T22:15:44.313Z,100488.97
2022-08-30T22:18:31.371Z,100489.81
2022-08-30T22:21:13.429Z,100490.75
2022-08-30T22:24:00.379Z,100491.59
2022-08-30T22:26:47.695Z,100486.38
2022-08-30T22:29:30.654Z,100482.75
2022-08-30T22:32:20.517Z,100482.31
2022-08-30T22:35:01.637Z,100477.50
2022-08-30T22:37:53.291Z,100483.94
2022-08-30T22:40:33.738Z,100483.13
2022-08-30T22:43:21.372Z,100485.53
2022-08-30T22:46:10.461Z,100488.34
2022-08-30T22:48:57.372Z,100484.72
2022-08-30T22:51:44.381Z,100478.75
2022-08-30T22:54:24.989Z,100475.94
2022-08-30T22:57:11.438Z,100480.34
2022-08-30T22:59:58.365Z,100485.19
2022-08-30T23:02:40.468Z,100483.22
2022-08-30T23:05:31.327Z,100481.97
2022-08-30T23:08:12.450Z,100477.56
2022-08-30T23:10:59.274Z,100481.97
2022-08-30T23:13:46.284Z,100479.50
2022-08-30T23:16:26.783Z,100476.59
2022-08-30T23:19:13.252Z,100469.41
2022-08-30T23:21:53.991Z,100471.84
2022-08-30T23:24:59.290Z,100472.72
2022-08-30T23:28:12.285Z,100476.75
2022-08-30T23:31:47.320Z,100475.53
2022-08-30T23:34:53.262Z,100478.22
2022-08-30T23:37:53.383Z,100472.94
2022-08-30T23:40:59.230Z,100474.56
2022-08-30T23:43:58.001Z,100485.91
2022-08-30T23:47:04.198Z,100482.25
2022-08-30T23:50:03.284Z,100482.69
2022-08-30T23:53:09.255Z,100474.28
2022-08-30T23:56:15.319Z,100474.75
2022-08-30T23:59:21.219Z,100471.94
